Terminal Aerodrome Forecast
Issued by NWS

Home | Current Version | Previous Version | Text Only | Print | Product List | Glossary On
Versions: 1 2 3 4 5 6 7 8 9 10 11 12 13 14
000
FTUS42 TJSJ 291120
TAFJMZ
TAF
TJMZ 291120Z 2912/3012 VRB04KT P6SM FEW025 SCT050
     FM291330 07006KT P6SM SCT030 SCT100
     FM291700 22012KT P6SM VCTS SCT022CB BKN040 BKN090
     FM292200 06006KT P6SM SCT025 SCT100
      AMD NOT SKED=

USA.gov is the U.S. government's official web portal to all federal, state and local government web resources and services.